sensor_id;sensor_type;location;lat;lon;timestamp;P1;durP1;ratioP1;P2;durP2;ratioP2
64873;SDS011;51367;45.204;38.576;2023-08-31T00:01:11;20.67;;;4.70;;
64873;SDS011;51367;45.204;38.576;2023-08-31T00:03:37;12.63;;;4.32;;
64873;SDS011;51367;45.204;38.576;2023-08-31T00:06:03;8.07;;;4.47;;
64873;SDS011;51367;45.204;38.576;2023-08-31T00:08:32;10.30;;;4.70;;
64873;SDS011;51367;45.204;38.576;2023-08-31T00:10:59;5.57;;;3.90;;
64873;SDS011;51367;45.204;38.576;2023-08-31T00:13:26;8.63;;;4.00;;
64873;SDS011;51367;45.204;38.576;2023-08-31T00:15:53;10.10;;;4.63;;
64873;SDS011;51367;45.204;38.576;2023-08-31T00:18:22;5.50;;;4.72;;
64873;SDS011;51367;45.204;38.576;2023-08-31T00:20:47;6.68;;;3.72;;
64873;SDS011;51367;45.204;38.576;2023-08-31T00:23:13;8.50;;;4.10;;
64873;SDS011;51367;45.204;38.576;2023-08-31T00:25:39;19.55;;;4.55;;
64873;SDS011;51367;45.204;38.576;2023-08-31T00:28:06;7.40;;;5.75;;
64873;SDS011;51367;45.204;38.576;2023-08-31T00:30:34;8.32;;;4.05;;
64873;SDS011;51367;45.204;38.576;2023-08-31T00:33:00;7.82;;;4.32;;
64873;SDS011;51367;45.204;38.576;2023-08-31T00:35:27;6.10;;;4.55;;
64873;SDS011;51367;45.204;38.576;2023-08-31T00:37:54;5.38;;;4.50;;
64873;SDS011;51367;45.204;38.576;2023-08-31T00:40:26;8.98;;;4.50;;
64873;SDS011;51367;45.204;38.576;2023-08-31T00:42:56;5.80;;;4.30;;
64873;SDS011;51367;45.204;38.576;2023-08-31T00:45:22;9.27;;;4.65;;
64873;SDS011;51367;45.204;38.576;2023-08-31T00:47:49;16.38;;;4.72;;
64873;SDS011;51367;45.204;38.576;2023-08-31T00:50:15;5.70;;;4.40;;
64873;SDS011;51367;45.204;38.576;2023-08-31T00:52:42;7.63;;;5.43;;
64873;SDS011;51367;45.204;38.576;2023-08-31T00:55:12;10.75;;;4.53;;
64873;SDS011;51367;45.204;38.576;2023-08-31T00:57:38;9.63;;;5.13;;
64873;SDS011;51367;45.204;38.576;2023-08-31T01:00:06;4.65;;;4.20;;
64873;SDS011;51367;45.204;38.576;2023-08-31T01:05:14;7.10;;;4.70;;
64873;SDS011;51367;45.204;38.576;2023-08-31T01:07:48;15.70;;;4.60;;
64873;SDS011;51367;45.204;38.576;2023-08-31T01:13:14;18.73;;;4.38;;
64873;SDS011;51367;45.204;38.576;2023-08-31T01:15:45;13.50;;;3.40;;
64873;SDS011;51367;45.204;38.576;2023-08-31T01:18:17;5.93;;;4.93;;
64873;SDS011;51367;45.204;38.576;2023-08-31T01:20:52;14.88;;;5.07;;
64873;SDS011;51367;45.204;38.576;2023-08-31T01:23:26;14.27;;;4.68;;
64873;SDS011;51367;45.204;38.576;2023-08-31T01:26:00;5.80;;;3.60;;
64873;SDS011;51367;45.204;38.576;2023-08-31T01:28:27;12.55;;;5.32;;
64873;SDS011;51367;45.204;38.576;2023-08-31T01:30:53;4.40;;;4.03;;
64873;SDS011;51367;45.204;38.576;2023-08-31T01:33:18;7.05;;;4.15;;
64873;SDS011;51367;45.204;38.576;2023-08-31T01:35:47;12.85;;;4.07;;
64873;SDS011;51367;45.204;38.576;2023-08-31T01:38:15;5.25;;;4.78;;
64873;SDS011;51367;45.204;38.576;2023-08-31T01:43:21;6.60;;;4.68;;
64873;SDS011;51367;45.204;38.576;2023-08-31T01:45:48;6.00;;;4.63;;
64873;SDS011;51367;45.204;38.576;2023-08-31T01:48:14;16.83;;;6.07;;
64873;SDS011;51367;45.204;38.576;2023-08-31T01:50:41;7.68;;;5.22;;
64873;SDS011;51367;45.204;38.576;2023-08-31T01:53:07;13.18;;;5.55;;
64873;SDS011;51367;45.204;38.576;2023-08-31T01:55:33;9.05;;;5.75;;
64873;SDS011;51367;45.204;38.576;2023-08-31T01:57:59;23.63;;;5.43;;
64873;SDS011;51367;45.204;38.576;2023-08-31T02:00:27;13.38;;;5.38;;
64873;SDS011;51367;45.204;38.576;2023-08-31T02:02:55;10.18;;;5.90;;
64873;SDS011;51367;45.204;38.576;2023-08-31T02:05:21;8.00;;;4.57;;
64873;SDS011;51367;45.204;38.576;2023-08-31T02:07:47;17.08;;;5.07;;
64873;SDS011;51367;45.204;38.576;2023-08-31T02:10:13;15.55;;;5.05;;
64873;SDS011;51367;45.204;38.576;2023-08-31T02:12:42;8.52;;;5.13;;
64873;SDS011;51367;45.204;38.576;2023-08-31T02:15:08;11.27;;;5.43;;
64873;SDS011;51367;45.204;38.576;2023-08-31T02:17:35;8.70;;;5.30;;
64873;SDS011;51367;45.204;38.576;2023-08-31T02:20:02;6.00;;;3.72;;
64873;SDS011;51367;45.204;38.576;2023-08-31T02:22:30;12.23;;;4.88;;
64873;SDS011;51367;45.204;38.576;2023-08-31T02:24:58;6.32;;;4.57;;
64873;SDS011;51367;45.204;38.576;2023-08-31T02:27:26;21.92;;;5.47;;
64873;SDS011;51367;45.204;38.576;2023-08-31T02:29:52;5.57;;;4.57;;
64873;SDS011;51367;45.204;38.576;2023-08-31T02:32:19;10.90;;;4.65;;
64873;SDS011;51367;45.204;38.576;2023-08-31T02:34:45;10.50;;;4.40;;
64873;SDS011;51367;45.204;38.576;2023-08-31T02:37:11;7.30;;;4.72;;
64873;SDS011;51367;45.204;38.576;2023-08-31T02:39:37;19.83;;;7.95;;
64873;SDS011;51367;45.204;38.576;2023-08-31T02:42:03;12.70;;;4.03;;
64873;SDS011;51367;45.204;38.576;2023-08-31T02:44:31;8.90;;;6.00;;
64873;SDS011;51367;45.204;38.576;2023-08-31T02:46:57;6.72;;;5.18;;
64873;SDS011;51367;45.204;38.576;2023-08-31T02:49:23;10.63;;;5.85;;
64873;SDS011;51367;45.204;38.576;2023-08-31T02:51:48;6.00;;;5.40;;
64873;SDS011;51367;45.204;38.576;2023-08-31T02:54:15;23.98;;;5.75;;
64873;SDS011;51367;45.204;38.576;2023-08-31T02:56:41;6.90;;;5.05;;
64873;SDS011;51367;45.204;38.576;2023-08-31T02:59:07;7.25;;;4.53;;
64873;SDS011;51367;45.204;38.576;2023-08-31T03:01:33;7.57;;;5.18;;
64873;SDS011;51367;45.204;38.576;2023-08-31T03:04:00;24.42;;;5.72;;
64873;SDS011;51367;45.204;38.576;2023-08-31T03:06:26;13.80;;;7.40;;
64873;SDS011;51367;45.204;38.576;2023-08-31T03:08:52;12.70;;;5.55;;
64873;SDS011;51367;45.204;38.576;2023-08-31T03:11:18;10.95;;;6.03;;
64873;SDS011;51367;45.204;38.576;2023-08-31T03:13:44;13.93;;;5.93;;
64873;SDS011;51367;45.204;38.576;2023-08-31T03:16:11;13.25;;;5.60;;
64873;SDS011;51367;45.204;38.576;2023-08-31T03:18:37;6.57;;;5.20;;
64873;SDS011;51367;45.204;38.576;2023-08-31T03:21:03;14.00;;;5.72;;
64873;SDS011;51367;45.204;38.576;2023-08-31T03:23:29;9.68;;;5.82;;
64873;SDS011;51367;45.204;38.576;2023-08-31T03:25:56;23.25;;;6.78;;
64873;SDS011;51367;45.204;38.576;2023-08-31T03:28:25;8.82;;;6.05;;
64873;SDS011;51367;45.204;38.576;2023-08-31T03:30:57;21.02;;;6.50;;
64873;SDS011;51367;45.204;38.576;2023-08-31T03:33:23;12.30;;;5.80;;
64873;SDS011;51367;45.204;38.576;2023-08-31T03:35:49;17.85;;;5.90;;
64873;SDS011;51367;45.204;38.576;2023-08-31T03:38:15;6.18;;;5.18;;
64873;SDS011;51367;45.204;38.576;2023-08-31T03:40:52;16.92;;;6.03;;
64873;SDS011;51367;45.204;38.576;2023-08-31T03:43:19;8.02;;;5.85;;
64873;SDS011;51367;45.204;38.576;2023-08-31T03:45:45;17.63;;;5.45;;
64873;SDS011;51367;45.204;38.576;2023-08-31T03:48:11;25.77;;;8.55;;
64873;SDS011;51367;45.204;38.576;2023-08-31T03:50:37;13.27;;;7.43;;
64873;SDS011;51367;45.204;38.576;2023-08-31T03:53:04;15.30;;;6.57;;
64873;SDS011;51367;45.204;38.576;2023-08-31T03:55:30;23.67;;;7.63;;
64873;SDS011;51367;45.204;38.576;2023-08-31T03:57:56;12.80;;;7.63;;
64873;SDS011;51367;45.204;38.576;2023-08-31T04:00:23;11.60;;;8.75;;
64873;SDS011;51367;45.204;38.576;2023-08-31T04:02:49;12.45;;;7.47;;
64873;SDS011;51367;45.204;38.576;2023-08-31T04:05:20;33.45;;;8.15;;
64873;SDS011;51367;45.204;38.576;2023-08-31T04:07:46;24.67;;;7.18;;
64873;SDS011;51367;45.204;38.576;2023-08-31T04:10:12;16.42;;;7.70;;
64873;SDS011;51367;45.204;38.576;2023-08-31T04:12:38;17.88;;;6.30;;
64873;SDS011;51367;45.204;38.576;2023-08-31T04:15:04;24.63;;;9.70;;
64873;SDS011;51367;45.204;38.576;2023-08-31T04:17:31;15.35;;;9.30;;
64873;SDS011;51367;45.204;38.576;2023-08-31T04:19:57;26.15;;;10.00;;
64873;SDS011;51367;45.204;38.576;2023-08-31T04:22:23;16.80;;;9.38;;
64873;SDS011;51367;45.204;38.576;2023-08-31T04:24:49;10.75;;;7.72;;
64873;SDS011;51367;45.204;38.576;2023-08-31T04:27:15;12.95;;;7.40;;
64873;SDS011;51367;45.204;38.576;2023-08-31T04:29:41;19.92;;;8.70;;
64873;SDS011;51367;45.204;38.576;2023-08-31T04:32:07;16.45;;;8.35;;
64873;SDS011;51367;45.204;38.576;2023-08-31T04:34:33;11.52;;;7.25;;
64873;SDS011;51367;45.204;38.576;2023-08-31T04:36:58;13.45;;;6.70;;
64873;SDS011;51367;45.204;38.576;2023-08-31T04:39:24;12.98;;;6.88;;
64873;SDS011;51367;45.204;38.576;2023-08-31T04:41:52;35.47;;;12.63;;
64873;SDS011;51367;45.204;38.576;2023-08-31T04:44:17;29.45;;;13.32;;
64873;SDS011;51367;45.204;38.576;2023-08-31T04:46:43;19.40;;;12.40;;
64873;SDS011;51367;45.204;38.576;2023-08-31T04:49:09;11.65;;;8.13;;
64873;SDS011;51367;45.204;38.576;2023-08-31T04:51:35;11.77;;;7.28;;
64873;SDS011;51367;45.204;38.576;2023-08-31T04:54:04;18.02;;;7.95;;
64873;SDS011;51367;45.204;38.576;2023-08-31T04:56:31;11.25;;;8.07;;
64873;SDS011;51367;45.204;38.576;2023-08-31T04:58:58;12.25;;;6.22;;
64873;SDS011;51367;45.204;38.576;2023-08-31T05:01:25;12.43;;;7.35;;
64873;SDS011;51367;45.204;38.576;2023-08-31T05:03:51;29.70;;;7.15;;
64873;SDS011;51367;45.204;38.576;2023-08-31T05:06:17;7.28;;;6.35;;
64873;SDS011;51367;45.204;38.576;2023-08-31T05:08:43;10.85;;;7.85;;
64873;SDS011;51367;45.204;38.576;2023-08-31T05:11:09;16.35;;;8.45;;
64873;SDS011;51367;45.204;38.576;2023-08-31T05:13:35;12.23;;;7.65;;
64873;SDS011;51367;45.204;38.576;2023-08-31T05:16:00;14.55;;;8.35;;
64873;SDS011;51367;45.204;38.576;2023-08-31T05:18:28;8.60;;;6.22;;
64873;SDS011;51367;45.204;38.576;2023-08-31T05:20:54;25.58;;;7.97;;
64873;SDS011;51367;45.204;38.576;2023-08-31T05:23:19;9.15;;;6.57;;
64873;SDS011;51367;45.204;38.576;2023-08-31T05:25:45;13.10;;;7.38;;
64873;SDS011;51367;45.204;38.576;2023-08-31T05:28:11;11.80;;;5.82;;
64873;SDS011;51367;45.204;38.576;2023-08-31T05:30:46;18.70;;;6.75;;
64873;SDS011;51367;45.204;38.576;2023-08-31T05:33:14;9.32;;;6.63;;
64873;SDS011;51367;45.204;38.576;2023-08-31T05:35:40;10.20;;;7.40;;
64873;SDS011;51367;45.204;38.576;2023-08-31T05:38:06;10.68;;;8.25;;
64873;SDS011;51367;45.204;38.576;2023-08-31T05:40:32;9.77;;;7.80;;
64873;SDS011;51367;45.204;38.576;2023-08-31T05:42:58;8.32;;;7.32;;
64873;SDS011;51367;45.204;38.576;2023-08-31T05:45:23;29.85;;;9.00;;
64873;SDS011;51367;45.204;38.576;2023-08-31T05:47:49;12.02;;;7.60;;
64873;SDS011;51367;45.204;38.576;2023-08-31T05:50:15;23.48;;;9.48;;
64873;SDS011;51367;45.204;38.576;2023-08-31T05:52:41;18.30;;;8.73;;
64873;SDS011;51367;45.204;38.576;2023-08-31T05:55:09;17.50;;;8.27;;
64873;SDS011;51367;45.204;38.576;2023-08-31T05:57:35;11.07;;;7.70;;
64873;SDS011;51367;45.204;38.576;2023-08-31T06:00:03;12.93;;;8.40;;
64873;SDS011;51367;45.204;38.576;2023-08-31T06:02:38;13.07;;;6.90;;
64873;SDS011;51367;45.204;38.576;2023-08-31T06:05:04;8.75;;;6.40;;
64873;SDS011;51367;45.204;38.576;2023-08-31T06:07:31;6.15;;;5.57;;
64873;SDS011;51367;45.204;38.576;2023-08-31T06:09:57;9.55;;;6.45;;
64873;SDS011;51367;45.204;38.576;2023-08-31T06:12:23;22.33;;;6.40;;
64873;SDS011;51367;45.204;38.576;2023-08-31T06:14:49;12.05;;;6.35;;
64873;SDS011;51367;45.204;38.576;2023-08-31T06:17:15;9.18;;;6.40;;
64873;SDS011;51367;45.204;38.576;2023-08-31T06:19:41;10.38;;;6.78;;
64873;SDS011;51367;45.204;38.576;2023-08-31T06:22:08;6.95;;;6.15;;
64873;SDS011;51367;45.204;38.576;2023-08-31T06:24:34;12.65;;;6.88;;
64873;SDS011;51367;45.204;38.576;2023-08-31T06:27:00;9.43;;;5.63;;
64873;SDS011;51367;45.204;38.576;2023-08-31T06:29:26;6.80;;;6.07;;
64873;SDS011;51367;45.204;38.576;2023-08-31T06:31:52;5.82;;;5.15;;
64873;SDS011;51367;45.204;38.576;2023-08-31T06:34:18;10.38;;;6.05;;
64873;SDS011;51367;45.204;38.576;2023-08-31T06:36:44;12.20;;;6.38;;
64873;SDS011;51367;45.204;38.576;2023-08-31T06:39:10;15.50;;;6.63;;
64873;SDS011;51367;45.204;38.576;2023-08-31T06:41:36;14.35;;;6.03;;
64873;SDS011;51367;45.204;38.576;2023-08-31T06:44:02;9.90;;;6.47;;
64873;SDS011;51367;45.204;38.576;2023-08-31T06:46:29;10.32;;;5.82;;
64873;SDS011;51367;45.204;38.576;2023-08-31T06:48:59;11.85;;;6.63;;
64873;SDS011;51367;45.204;38.576;2023-08-31T06:51:25;20.85;;;5.95;;
64873;SDS011;51367;45.204;38.576;2023-08-31T06:53:51;13.15;;;6.10;;
64873;SDS011;51367;45.204;38.576;2023-08-31T06:56:17;12.93;;;6.40;;
64873;SDS011;51367;45.204;38.576;2023-08-31T06:58:43;16.48;;;7.43;;
64873;SDS011;51367;45.204;38.576;2023-08-31T07:01:09;6.78;;;5.45;;
64873;SDS011;51367;45.204;38.576;2023-08-31T07:03:35;8.48;;;5.95;;
64873;SDS011;51367;45.204;38.576;2023-08-31T07:06:01;8.85;;;5.28;;
64873;SDS011;51367;45.204;38.576;2023-08-31T07:08:28;11.82;;;5.30;;
64873;SDS011;51367;45.204;38.576;2023-08-31T07:10:54;8.80;;;5.45;;
64873;SDS011;51367;45.204;38.576;2023-08-31T07:13:20;9.00;;;5.13;;
64873;SDS011;51367;45.204;38.576;2023-08-31T07:15:46;11.57;;;5.85;;
64873;SDS011;51367;45.204;38.576;2023-08-31T07:18:14;6.60;;;5.72;;
64873;SDS011;51367;45.204;38.576;2023-08-31T07:20:40;10.57;;;6.00;;
64873;SDS011;51367;45.204;38.576;2023-08-31T07:23:06;13.07;;;5.63;;
64873;SDS011;51367;45.204;38.576;2023-08-31T07:25:31;7.32;;;5.43;;
64873;SDS011;51367;45.204;38.576;2023-08-31T07:27:57;10.95;;;6.47;;
64873;SDS011;51367;45.204;38.576;2023-08-31T07:30:23;7.32;;;5.72;;
64873;SDS011;51367;45.204;38.576;2023-08-31T07:32:49;11.82;;;6.10;;
64873;SDS011;51367;45.204;38.576;2023-08-31T07:35:15;8.98;;;5.53;;
64873;SDS011;51367;45.204;38.576;2023-08-31T07:37:41;6.88;;;6.18;;
64873;SDS011;51367;45.204;38.576;2023-08-31T07:40:07;6.70;;;6.10;;
64873;SDS011;51367;45.204;38.576;2023-08-31T07:42:35;10.18;;;6.20;;
64873;SDS011;51367;45.204;38.576;2023-08-31T07:45:01;12.85;;;6.90;;
64873;SDS011;51367;45.204;38.576;2023-08-31T07:47:27;11.23;;;6.30;;
64873;SDS011;51367;45.204;38.576;2023-08-31T07:49:52;9.23;;;6.03;;
64873;SDS011;51367;45.204;38.576;2023-08-31T07:52:19;5.93;;;5.38;;
64873;SDS011;51367;45.204;38.576;2023-08-31T07:54:45;8.07;;;5.70;;
64873;SDS011;51367;45.204;38.576;2023-08-31T07:57:11;5.78;;;5.28;;
64873;SDS011;51367;45.204;38.576;2023-08-31T07:59:36;10.80;;;5.82;;
64873;SDS011;51367;45.204;38.576;2023-08-31T08:02:05;7.75;;;5.93;;
64873;SDS011;51367;45.204;38.576;2023-08-31T08:04:31;9.07;;;5.25;;
64873;SDS011;51367;45.204;38.576;2023-08-31T08:06:57;6.75;;;5.13;;
64873;SDS011;51367;45.204;38.576;2023-08-31T08:09:23;12.88;;;5.32;;
64873;SDS011;51367;45.204;38.576;2023-08-31T08:11:49;8.85;;;5.15;;
64873;SDS011;51367;45.204;38.576;2023-08-31T08:14:16;8.68;;;5.20;;
64873;SDS011;51367;45.204;38.576;2023-08-31T08:16:42;11.27;;;5.75;;
64873;SDS011;51367;45.204;38.576;2023-08-31T08:19:08;7.90;;;5.05;;
64873;SDS011;51367;45.204;38.576;2023-08-31T08:21:34;6.00;;;5.40;;
64873;SDS011;51367;45.204;38.576;2023-08-31T08:24:00;4.28;;;3.65;;
64873;SDS011;51367;45.204;38.576;2023-08-31T08:26:26;7.47;;;4.20;;
64873;SDS011;51367;45.204;38.576;2023-08-31T08:28:52;7.72;;;5.10;;
64873;SDS011;51367;45.204;38.576;2023-08-31T08:31:17;8.00;;;5.25;;
64873;SDS011;51367;45.204;38.576;2023-08-31T08:33:43;7.63;;;4.70;;
64873;SDS011;51367;45.204;38.576;2023-08-31T08:36:09;7.25;;;4.68;;
64873;SDS011;51367;45.204;38.576;2023-08-31T08:38:35;7.40;;;5.30;;
64873;SDS011;51367;45.204;38.576;2023-08-31T08:41:04;4.07;;;3.67;;
64873;SDS011;51367;45.204;38.576;2023-08-31T08:43:31;4.65;;;4.25;;
64873;SDS011;51367;45.204;38.576;2023-08-31T08:46:04;4.68;;;3.88;;
64873;SDS011;51367;45.204;38.576;2023-08-31T08:48:34;9.43;;;4.15;;
64873;SDS011;51367;45.204;38.576;2023-08-31T08:51:04;3.40;;;3.10;;
64873;SDS011;51367;45.204;38.576;2023-08-31T08:53:31;3.75;;;3.03;;
64873;SDS011;51367;45.204;38.576;2023-08-31T08:55:57;3.47;;;3.17;;
64873;SDS011;51367;45.204;38.576;2023-08-31T08:58:23;3.22;;;2.78;;
64873;SDS011;51367;45.204;38.576;2023-08-31T09:00:49;3.78;;;2.50;;
64873;SDS011;51367;45.204;38.576;2023-08-31T09:03:17;3.08;;;2.78;;
64873;SDS011;51367;45.204;38.576;2023-08-31T09:05:43;2.95;;;2.67;;
64873;SDS011;51367;45.204;38.576;2023-08-31T09:08:09;1.80;;;1.70;;
64873;SDS011;51367;45.204;38.576;2023-08-31T09:10:38;2.40;;;2.20;;
64873;SDS011;51367;45.204;38.576;2023-08-31T09:13:06;2.35;;;2.10;;
64873;SDS011;51367;45.204;38.576;2023-08-31T09:15:40;2.10;;;1.98;;
64873;SDS011;51367;45.204;38.576;2023-08-31T09:18:17;3.33;;;2.60;;
64873;SDS011;51367;45.204;38.576;2023-08-31T09:20:49;2.72;;;2.10;;
64873;SDS011;51367;45.204;38.576;2023-08-31T09:23:16;2.67;;;2.35;;
64873;SDS011;51367;45.204;38.576;2023-08-31T09:25:46;2.30;;;2.10;;
64873;SDS011;51367;45.204;38.576;2023-08-31T09:28:14;3.67;;;2.95;;
64873;SDS011;51367;45.204;38.576;2023-08-31T09:30:41;3.58;;;2.85;;
64873;SDS011;51367;45.204;38.576;2023-08-31T09:33:08;5.53;;;2.65;;
64873;SDS011;51367;45.204;38.576;2023-08-31T09:35:39;2.75;;;2.38;;
64873;SDS011;51367;45.204;38.576;2023-08-31T09:38:08;2.75;;;2.55;;
64873;SDS011;51367;45.204;38.576;2023-08-31T09:40:35;2.63;;;2.42;;
64873;SDS011;51367;45.204;38.576;2023-08-31T09:43:02;2.25;;;2.05;;
64873;SDS011;51367;45.204;38.576;2023-08-31T09:45:29;4.38;;;2.50;;
64873;SDS011;51367;45.204;38.576;2023-08-31T09:47:59;3.70;;;2.97;;
64873;SDS011;51367;45.204;38.576;2023-08-31T09:50:30;4.63;;;2.75;;
64873;SDS011;51367;45.204;38.576;2023-08-31T09:53:00;5.80;;;3.13;;
64873;SDS011;51367;45.204;38.576;2023-08-31T09:55:31;2.88;;;2.60;;
64873;SDS011;51367;45.204;38.576;2023-08-31T09:57:59;6.90;;;2.78;;
64873;SDS011;51367;45.204;38.576;2023-08-31T10:00:26;2.20;;;2.10;;
64873;SDS011;51367;45.204;38.576;2023-08-31T10:02:59;3.90;;;2.95;;
64873;SDS011;51367;45.204;38.576;2023-08-31T10:05:27;4.05;;;2.78;;
64873;SDS011;51367;45.204;38.576;2023-08-31T10:07:53;3.00;;;2.80;;
64873;SDS011;51367;45.204;38.576;2023-08-31T10:10:19;6.72;;;3.15;;
64873;SDS011;51367;45.204;38.576;2023-08-31T10:12:48;5.82;;;2.88;;
64873;SDS011;51367;45.204;38.576;2023-08-31T10:15:15;3.53;;;2.92;;
64873;SDS011;51367;45.204;38.576;2023-08-31T10:17:42;3.33;;;3.00;;
64873;SDS011;51367;45.204;38.576;2023-08-31T10:20:08;3.95;;;2.15;;
64873;SDS011;51367;45.204;38.576;2023-08-31T10:22:36;4.05;;;2.50;;
64873;SDS011;51367;45.204;38.576;2023-08-31T10:25:03;3.30;;;3.00;;
64873;SDS011;51367;45.204;38.576;2023-08-31T10:35:41;10.52;;;2.67;;
64873;SDS011;51367;45.204;38.576;2023-08-31T10:38:23;3.13;;;2.83;;
64873;SDS011;51367;45.204;38.576;2023-08-31T10:41:02;2.88;;;2.42;;
64873;SDS011;51367;45.204;38.576;2023-08-31T10:43:47;10.15;;;3.00;;
64873;SDS011;51367;45.204;38.576;2023-08-31T10:46:18;2.92;;;2.30;;
64873;SDS011;51367;45.204;38.576;2023-08-31T10:48:51;4.38;;;2.75;;
64873;SDS011;51367;45.204;38.576;2023-08-31T10:51:17;2.83;;;2.55;;
64873;SDS011;51367;45.204;38.576;2023-08-31T10:53:46;2.83;;;2.63;;
64873;SDS011;51367;45.204;38.576;2023-08-31T10:56:12;3.38;;;2.80;;
64873;SDS011;51367;45.204;38.576;2023-08-31T10:58:40;5.13;;;2.30;;
64873;SDS011;51367;45.204;38.576;2023-08-31T11:01:06;11.23;;;2.85;;
64873;SDS011;51367;45.204;38.576;2023-08-31T11:03:32;3.20;;;2.83;;
64873;SDS011;51367;45.204;38.576;2023-08-31T11:05:58;4.65;;;2.30;;
64873;SDS011;51367;45.204;38.576;2023-08-31T11:08:24;2.58;;;2.30;;
64873;SDS011;51367;45.204;38.576;2023-08-31T11:10:51;2.65;;;2.45;;
64873;SDS011;51367;45.204;38.576;2023-08-31T11:13:22;3.13;;;2.83;;
64873;SDS011;51367;45.204;38.576;2023-08-31T11:15:48;6.85;;;2.80;;
64873;SDS011;51367;45.204;38.576;2023-08-31T11:18:15;5.05;;;2.13;;
64873;SDS011;51367;45.204;38.576;2023-08-31T11:20:43;2.00;;;1.88;;
64873;SDS011;51367;45.204;38.576;2023-08-31T11:23:09;6.15;;;2.60;;
64873;SDS011;51367;45.204;38.576;2023-08-31T11:25:35;2.42;;;2.22;;
64873;SDS011;51367;45.204;38.576;2023-08-31T11:28:03;5.72;;;2.20;;
64873;SDS011;51367;45.204;38.576;2023-08-31T11:30:31;2.35;;;2.15;;
64873;SDS011;51367;45.204;38.576;2023-08-31T11:33:16;2.78;;;2.35;;
64873;SDS011;51367;45.204;38.576;2023-08-31T11:35:43;3.15;;;2.42;;
64873;SDS011;51367;45.204;38.576;2023-08-31T11:38:10;6.35;;;2.10;;
64873;SDS011;51367;45.204;38.576;2023-08-31T11:40:36;2.42;;;2.22;;
64873;SDS011;51367;45.204;38.576;2023-08-31T11:43:03;8.98;;;2.55;;
64873;SDS011;51367;45.204;38.576;2023-08-31T11:45:31;3.03;;;2.28;;
64873;SDS011;51367;45.204;38.576;2023-08-31T11:47:57;2.60;;;2.35;;
64873;SDS011;51367;45.204;38.576;2023-08-31T11:50:23;3.90;;;2.50;;
64873;SDS011;51367;45.204;38.576;2023-08-31T11:52:50;4.05;;;2.45;;
64873;SDS011;51367;45.204;38.576;2023-08-31T11:55:18;2.85;;;2.10;;
64873;SDS011;51367;45.204;38.576;2023-08-31T11:57:52;2.75;;;2.15;;
64873;SDS011;51367;45.204;38.576;2023-08-31T12:00:22;7.90;;;2.20;;
64873;SDS011;51367;45.204;38.576;2023-08-31T12:02:57;2.17;;;2.08;;
64873;SDS011;51367;45.204;38.576;2023-08-31T12:05:27;10.35;;;2.33;;
64873;SDS011;51367;45.204;38.576;2023-08-31T12:07:54;3.33;;;2.05;;
64873;SDS011;51367;45.204;38.576;2023-08-31T12:10:20;1.88;;;1.73;;
64873;SDS011;51367;45.204;38.576;2023-08-31T12:12:47;3.03;;;2.10;;
64873;SDS011;51367;45.204;38.576;2023-08-31T12:15:13;4.18;;;2.10;;
64873;SDS011;51367;45.204;38.576;2023-08-31T12:17:39;2.88;;;2.40;;
64873;SDS011;51367;45.204;38.576;2023-08-31T12:20:08;1.80;;;1.70;;
64873;SDS011;51367;45.204;38.576;2023-08-31T12:22:35;2.00;;;1.90;;
64873;SDS011;51367;45.204;38.576;2023-08-31T12:25:01;1.88;;;1.58;;
64873;SDS011;51367;45.204;38.576;2023-08-31T12:27:27;2.00;;;1.90;;
64873;SDS011;51367;45.204;38.576;2023-08-31T12:29:53;2.03;;;1.90;;
64873;SDS011;51367;45.204;38.576;2023-08-31T12:32:19;4.50;;;2.10;;
64873;SDS011;51367;45.204;38.576;2023-08-31T12:34:45;2.05;;;1.88;;
64873;SDS011;51367;45.204;38.576;2023-08-31T12:37:12;2.17;;;2.08;;
64873;SDS011;51367;45.204;38.576;2023-08-31T12:39:39;3.42;;;1.88;;
64873;SDS011;51367;45.204;38.576;2023-08-31T12:42:07;2.33;;;1.92;;
64873;SDS011;51367;45.204;38.576;2023-08-31T12:44:33;2.08;;;1.88;;
64873;SDS011;51367;45.204;38.576;2023-08-31T12:46:59;3.58;;;2.42;;
64873;SDS011;51367;45.204;38.576;2023-08-31T12:49:25;16.38;;;2.10;;
64873;SDS011;51367;45.204;38.576;2023-08-31T12:51:51;5.78;;;2.10;;
64873;SDS011;51367;45.204;38.576;2023-08-31T12:54:17;3.70;;;2.42;;
64873;SDS011;51367;45.204;38.576;2023-08-31T12:56:43;4.57;;;2.30;;
64873;SDS011;51367;45.204;38.576;2023-08-31T12:59:09;2.35;;;1.70;;
64873;SDS011;51367;45.204;38.576;2023-08-31T13:01:35;3.80;;;1.77;;
64873;SDS011;51367;45.204;38.576;2023-08-31T13:04:01;1.77;;;1.67;;
64873;SDS011;51367;45.204;38.576;2023-08-31T13:06:27;3.95;;;1.95;;
64873;SDS011;51367;45.204;38.576;2023-08-31T13:08:53;2.10;;;1.92;;
64873;SDS011;51367;45.204;38.576;2023-08-31T13:11:19;2.60;;;2.10;;
64873;SDS011;51367;45.204;38.576;2023-08-31T13:13:49;3.80;;;2.10;;
64873;SDS011;51367;45.204;38.576;2023-08-31T13:16:18;2.10;;;1.90;;
64873;SDS011;51367;45.204;38.576;2023-08-31T13:18:44;3.78;;;2.05;;
64873;SDS011;51367;45.204;38.576;2023-08-31T13:21:10;3.83;;;1.80;;
64873;SDS011;51367;45.204;38.576;2023-08-31T13:23:36;1.73;;;1.63;;
64873;SDS011;51367;45.204;38.576;2023-08-31T13:26:02;4.15;;;2.22;;
64873;SDS011;51367;45.204;38.576;2023-08-31T13:28:28;7.78;;;2.35;;
64873;SDS011;51367;45.204;38.576;2023-08-31T13:30:57;4.05;;;2.30;;
64873;SDS011;51367;45.204;38.576;2023-08-31T13:33:26;3.72;;;3.38;;
64873;SDS011;51367;45.204;38.576;2023-08-31T13:35:58;4.28;;;3.95;;
64873;SDS011;51367;45.204;38.576;2023-08-31T13:38:24;4.80;;;4.35;;
64873;SDS011;51367;45.204;38.576;2023-08-31T13:40:54;8.88;;;7.47;;
64873;SDS011;51367;45.204;38.576;2023-08-31T13:43:23;3.95;;;2.60;;
64873;SDS011;51367;45.204;38.576;2023-08-31T13:45:49;2.15;;;1.95;;
64873;SDS011;51367;45.204;38.576;2023-08-31T13:48:16;4.95;;;2.90;;
64873;SDS011;51367;45.204;38.576;2023-08-31T13:50:42;3.53;;;2.50;;
64873;SDS011;51367;45.204;38.576;2023-08-31T13:53:08;6.85;;;4.68;;
64873;SDS011;51367;45.204;38.576;2023-08-31T13:55:34;3.08;;;2.35;;
64873;SDS011;51367;45.204;38.576;2023-08-31T13:58:07;8.57;;;3.10;;
64873;SDS011;51367;45.204;38.576;2023-08-31T14:00:33;2.83;;;2.58;;
64873;SDS011;51367;45.204;38.576;2023-08-31T14:03:00;2.33;;;2.13;;
64873;SDS011;51367;45.204;38.576;2023-08-31T14:05:29;5.10;;;3.33;;
64873;SDS011;51367;45.204;38.576;2023-08-31T14:07:55;7.43;;;2.22;;
64873;SDS011;51367;45.204;38.576;2023-08-31T14:10:25;6.25;;;2.50;;
64873;SDS011;51367;45.204;38.576;2023-08-31T14:12:52;2.83;;;2.35;;
64873;SDS011;51367;45.204;38.576;2023-08-31T14:15:18;11.70;;;4.10;;
64873;SDS011;51367;45.204;38.576;2023-08-31T14:17:44;7.90;;;3.22;;
64873;SDS011;51367;45.204;38.576;2023-08-31T14:20:10;5.05;;;2.25;;
64873;SDS011;51367;45.204;38.576;2023-08-31T14:22:37;10.52;;;3.30;;
64873;SDS011;51367;45.204;38.576;2023-08-31T14:25:08;2.38;;;2.05;;
64873;SDS011;51367;45.204;38.576;2023-08-31T14:27:36;6.82;;;1.80;;
64873;SDS011;51367;45.204;38.576;2023-08-31T14:30:02;2.70;;;2.25;;
64873;SDS011;51367;45.204;38.576;2023-08-31T14:32:28;8.73;;;2.35;;
64873;SDS011;51367;45.204;38.576;2023-08-31T14:34:54;2.10;;;1.90;;
64873;SDS011;51367;45.204;38.576;2023-08-31T14:37:21;4.13;;;2.60;;
64873;SDS011;51367;45.204;38.576;2023-08-31T14:39:47;5.55;;;2.88;;
64873;SDS011;51367;45.204;38.576;2023-08-31T14:42:12;12.13;;;5.78;;
64873;SDS011;51367;45.204;38.576;2023-08-31T14:44:40;7.10;;;4.72;;
64873;SDS011;51367;45.204;38.576;2023-08-31T14:47:06;6.53;;;2.70;;